createdAt,value
2023-01-19T00:01:33.104Z,99027.14
2023-01-19T00:04:01.074Z,99034.98
2023-01-19T00:06:29.073Z,99039.26
2023-01-19T00:08:57.009Z,99039.90
2023-01-19T00:11:25.045Z,99047.03
2023-01-19T00:13:53.797Z,99044.09
2023-01-19T00:16:23.480Z,99045.63
2023-01-19T00:18:52.474Z,99042.67
2023-01-19T00:21:21.883Z,99044.83
2023-01-19T00:23:51.337Z,99053.14
2023-01-19T00:26:21.187Z,99057.91
2023-01-19T00:28:50.536Z,99060.47
2023-01-19T00:31:20.880Z,99067.63
2023-01-19T00:33:51.591Z,99071.83
2023-01-19T00:36:19.832Z,99073.17
2023-01-19T00:38:47.873Z,99079.85
2023-01-19T00:41:16.682Z,99087.34
2023-01-19T00:43:44.948Z,99094.11
2023-01-19T00:46:12.872Z,99085.14
2023-01-19T00:48:40.793Z,99082.95
2023-01-19T00:51:08.601Z,99081.38
2023-01-19T00:53:36.461Z,99073.89
2023-01-19T00:56:04.566Z,99070.12
2023-01-19T00:58:32.477Z,99067.59
2023-01-19T01:01:03.872Z,99063.17
2023-01-19T01:03:33.084Z,99056.22
2023-01-19T01:06:01.212Z,99059.35
2023-01-19T01:08:31.113Z,99055.30
2023-01-19T01:10:59.066Z,99051.96
2023-01-19T01:13:28.324Z,99054.84
2023-01-19T01:15:57.568Z,99058.97
2023-01-19T01:18:26.007Z,99060.02
2023-01-19T01:21:00.998Z,99060.20
2023-01-19T01:23:28.860Z,99064.30
2023-01-19T01:25:56.760Z,99060.36
2023-01-19T01:28:24.572Z,99054.71
2023-01-19T01:30:56.549Z,99050.63
2023-01-19T01:33:41.395Z,99055.23
2023-01-19T01:36:11.969Z,99053.67
2023-01-19T01:38:41.548Z,99056.64
2023-01-19T01:41:10.661Z,99058.14
2023-01-19T01:43:47.449Z,99060.65
2023-01-19T01:46:17.500Z,99060.34
2023-01-19T01:48:54.299Z,99059.77
2023-01-19T01:51:46.301Z,99058.58
2023-01-19T01:54:17.300Z,99058.67
2023-01-19T01:56:48.093Z,99063.20
2023-01-19T01:59:29.477Z,99071.09
2023-01-19T02:02:20.308Z,99070.43
2023-01-19T02:04:56.329Z,99059.42
2023-01-19T02:07:58.696Z,99056.65
2023-01-19T02:10:45.120Z,99054.30
2023-01-19T02:13:20.256Z,99052.02
2023-01-19T02:15:51.059Z,99048.10
2023-01-19T02:18:21.611Z,99050.70
2023-01-19T02:21:07.822Z,99049.30
2023-01-19T02:23:40.828Z,99050.63
2023-01-19T02:26:10.866Z,99049.90
2023-01-19T02:28:43.174Z,99048.41
2023-01-19T02:31:11.602Z,99050.88
2023-01-19T02:33:39.527Z,99048.68
2023-01-19T02:36:11.056Z,99053.10
2023-01-19T02:38:40.221Z,99055.45
2023-01-19T02:41:11.539Z,99053.29
2023-01-19T02:43:41.821Z,99048.27
2023-01-19T02:46:09.635Z,99047.67
2023-01-19T02:48:37.836Z,99045.48
2023-01-19T02:51:15.438Z,99041.54
2023-01-19T02:53:52.465Z,99045.04
2023-01-19T02:56:36.415Z,99042.00
2023-01-19T02:59:15.753Z,99041.02
2023-01-19T03:02:00.683Z,99040.94
2023-01-19T03:04:39.846Z,99036.33
2023-01-19T03:07:14.412Z,99037.20
2023-01-19T03:09:52.786Z,99040.66
2023-01-19T03:12:36.024Z,99043.70
2023-01-19T03:15:15.710Z,99051.20
2023-01-19T03:17:47.846Z,99051.52
2023-01-19T03:20:22.758Z,99056.24
2023-01-19T03:23:00.802Z,99062.52
2023-01-19T03:25:34.774Z,99065.48
2023-01-19T03:28:04.385Z,99066.01
2023-01-19T03:30:40.558Z,99068.70
2023-01-19T03:33:14.873Z,99083.80
2023-01-19T03:35:47.037Z,99086.99
2023-01-19T03:38:20.125Z,99091.59
2023-01-19T03:40:49.220Z,99088.36
2023-01-19T03:43:18.916Z,99084.78
2023-01-19T03:45:47.603Z,99090.88
2023-01-19T03:48:16.032Z,99098.39
2023-01-19T03:50:43.946Z,99099.34
2023-01-19T03:53:14.705Z,99106.05
2023-01-19T03:55:45.821Z,99105.84
2023-01-19T03:58:13.886Z,99101.45
2023-01-19T04:00:41.864Z,99104.97
2023-01-19T04:03:18.202Z,99105.63
2023-01-19T04:05:46.198Z,99112.63
2023-01-19T04:08:14.269Z,99110.91
2023-01-19T04:10:42.460Z,99111.58
2023-01-19T04:13:10.619Z,99109.54
2023-01-19T04:15:39.040Z,99112.81
2023-01-19T04:18:07.269Z,99116.30
2023-01-19T04:20:35.129Z,99121.09
2023-01-19T04:23:03.546Z,99122.25
2023-01-19T04:25:31.735Z,99123.12
2023-01-19T04:27:59.538Z,99124.67
2023-01-19T04:30:28.109Z,99129.14
2023-01-19T04:32:56.471Z,99133.27
2023-01-19T04:35:24.275Z,99139.11
2023-01-19T04:37:52.077Z,99142.70
2023-01-19T04:40:20.105Z,99150.55
2023-01-19T04:42:48.007Z,99152.92
2023-01-19T04:45:15.859Z,99160.08
2023-01-19T04:47:43.811Z,99161.23
2023-01-19T04:50:12.139Z,99158.16
2023-01-19T04:52:40.072Z,99155.75
2023-01-19T04:55:08.722Z,99157.64
2023-01-19T04:57:36.830Z,99152.84
2023-01-19T05:00:06.929Z,99159.11
2023-01-19T05:02:35.292Z,99163.95
2023-01-19T05:05:03.934Z,99169.09
2023-01-19T05:07:31.967Z,99168.08
2023-01-19T05:10:02.816Z,99165.33
2023-01-19T05:12:31.698Z,99174.73
2023-01-19T05:15:00.279Z,99182.25
2023-01-19T05:17:28.674Z,99188.80
2023-01-19T05:19:56.506Z,99184.55
2023-01-19T05:22:24.575Z,99171.74
2023-01-19T05:24:52.774Z,99166.63
2023-01-19T05:27:20.834Z,99174.60
2023-01-19T05:29:48.892Z,99188.98
2023-01-19T05:32:16.908Z,99194.46
2023-01-19T05:34:44.779Z,99198.77
2023-01-19T05:37:12.707Z,99198.92
2023-01-19T05:39:40.477Z,99192.71
2023-01-19T05:42:08.398Z,99189.61
2023-01-19T05:44:36.139Z,99181.21
2023-01-19T05:47:04.462Z,99180.68
2023-01-19T05:49:32.278Z,99175.52
2023-01-19T05:52:00.230Z,99175.39
2023-01-19T05:54:28.147Z,99177.67
2023-01-19T05:56:55.973Z,99185.55
2023-01-19T05:59:24.479Z,99188.42
2023-01-19T06:01:53.213Z,99192.53
2023-01-19T06:04:21.529Z,99193.86
2023-01-19T06:06:50.268Z,99196.95
2023-01-19T06:09:18.456Z,99201.19
2023-01-19T06:11:46.938Z,99209.02
2023-01-19T06:14:15.010Z,99219.55
2023-01-19T06:16:43.154Z,99239.16
2023-01-19T06:19:11.266Z,99251.79
2023-01-19T06:21:39.331Z,99259.11
2023-01-19T06:24:07.319Z,99264.95
2023-01-19T06:26:35.149Z,99263.40
2023-01-19T06:29:03.042Z,99267.71
2023-01-19T06:31:30.956Z,99266.36
2023-01-19T06:33:58.865Z,99263.50
2023-01-19T06:36:26.697Z,99264.62
2023-01-19T06:38:54.544Z,99264.17
2023-01-19T06:41:22.381Z,99272.36
2023-01-19T06:43:50.216Z,99273.15
2023-01-19T06:46:18.087Z,99276.04
2023-01-19T06:48:46.612Z,99275.39
2023-01-19T06:51:14.535Z,99280.98
2023-01-19T06:53:42.509Z,99278.74
2023-01-19T06:56:10.365Z,99275.97
2023-01-19T06:58:38.612Z,99267.09
2023-01-19T07:01:07.495Z,99265.40
2023-01-19T07:03:37.351Z,99258.39
2023-01-19T07:06:08.815Z,99259.54
2023-01-19T07:08:37.826Z,99260.54
2023-01-19T07:11:23.656Z,99256.27
2023-01-19T07:13:56.718Z,99261.48
2023-01-19T07:16:27.395Z,99267.42
2023-01-19T07:18:55.336Z,99273.06
2023-01-19T07:21:23.682Z,99275.10
2023-01-19T07:23:53.149Z,99274.45
2023-01-19T07:26:21.858Z,99271.59
2023-01-19T07:28:50.249Z,99266.52
2023-01-19T07:31:19.163Z,99268.34
2023-01-19T07:33:47.247Z,99270.19
2023-01-19T07:36:15.492Z,99271.16
2023-01-19T07:38:43.413Z,99274.71
2023-01-19T07:41:11.783Z,99273.64
2023-01-19T07:43:39.794Z,99276.30
2023-01-19T07:46:08.546Z,99285.66
2023-01-19T07:48:36.783Z,99296.98
2023-01-19T07:51:10.435Z,99305.98
2023-01-19T07:53:40.163Z,99309.74
2023-01-19T07:56:08.733Z,99310.24
2023-01-19T07:58:36.533Z,99313.64
2023-01-19T08:01:12.952Z,99312.09
2023-01-19T08:03:40.863Z,99309.01
2023-01-19T08:06:22.331Z,99296.84
2023-01-19T08:08:50.668Z,99289.25
2023-01-19T08:11:18.548Z,99289.68
2023-01-19T08:13:46.635Z,99281.18
2023-01-19T08:16:14.475Z,99274.04
2023-01-19T08:18:42.762Z,99279.23
2023-01-19T08:21:10.551Z,99282.96
2023-01-19T08:23:38.443Z,99279.40
2023-01-19T08:26:30.130Z,99272.67
2023-01-19T08:29:00.748Z,99276.52
2023-01-19T08:31:29.200Z,99282.98
2023-01-19T08:33:58.055Z,99295.82
2023-01-19T08:36:26.385Z,99304.88
2023-01-19T08:38:54.317Z,99300.52
2023-01-19T08:41:22.470Z,99293.63
2023-01-19T08:43:50.397Z,99296.73
2023-01-19T08:46:20.987Z,99302.20
2023-01-19T08:48:49.537Z,99312.92
2023-01-19T08:51:18.097Z,99319.71
2023-01-19T08:53:46.008Z,99324.00
2023-01-19T08:56:14.616Z,99327.32
2023-01-19T08:58:46.671Z,99324.48
2023-01-19T09:01:18.785Z,99314.30
2023-01-19T09:03:47.060Z,99307.40
2023-01-19T09:06:18.503Z,99307.43
2023-01-19T09:08:47.456Z,99305.98
2023-01-19T09:11:17.613Z,99305.87
2023-01-19T09:13:46.092Z,99315.20
2023-01-19T09:16:16.064Z,99324.19
2023-01-19T09:18:46.223Z,99327.90
2023-01-19T09:21:15.293Z,99324.11
2023-01-19T09:23:43.338Z,99325.44
2023-01-19T09:26:11.380Z,99326.38
2023-01-19T09:28:39.863Z,99332.58
2023-01-19T09:31:09.180Z,99339.33
2023-01-19T09:33:37.249Z,99342.09
2023-01-19T09:36:05.888Z,99345.44
2023-01-19T09:38:34.235Z,99345.27
2023-01-19T09:41:02.454Z,99338.36
2023-01-19T09:43:45.528Z,99335.00
2023-01-19T09:46:18.024Z,99340.80
2023-01-19T09:48:52.946Z,99339.31
2023-01-19T09:51:32.731Z,99335.48
2023-01-19T09:54:14.828Z,99334.27
2023-01-19T09:56:44.496Z,99327.16
2023-01-19T09:59:19.386Z,99322.95
2023-01-19T10:02:12.562Z,99318.23
2023-01-19T10:04:58.736Z,99312.67
2023-01-19T10:08:03.768Z,99311.48
2023-01-19T10:10:32.801Z,99306.16
2023-01-19T10:13:22.863Z,99297.60
2023-01-19T10:16:03.117Z,99288.60
2023-01-19T10:18:51.673Z,99294.34
2023-01-19T10:21:51.508Z,99287.95
2023-01-19T10:24:25.825Z,99285.05
2023-01-19T10:26:56.102Z,99282.31
2023-01-19T10:29:38.645Z,99286.00
2023-01-19T10:32:09.034Z,99290.64
2023-01-19T10:34:37.328Z,99289.57
2023-01-19T10:37:32.639Z,99287.55
2023-01-19T10:40:09.401Z,99277.86
2023-01-19T10:42:38.865Z,99275.95
2023-01-19T10:45:30.191Z,99278.36
2023-01-19T10:48:01.254Z,99278.23
2023-01-19T10:50:39.960Z,99273.12
2023-01-19T10:53:21.155Z,99271.55
2023-01-19T10:56:11.791Z,99265.70
2023-01-19T10:58:40.773Z,99272.73
2023-01-19T11:01:18.385Z,99277.34
2023-01-19T11:03:46.631Z,99277.09
2023-01-19T11:06:16.403Z,99280.08
2023-01-19T11:08:46.993Z,99280.20
2023-01-19T11:11:15.189Z,99276.34
2023-01-19T11:13:44.083Z,99274.59
2023-01-19T11:16:27.753Z,99273.85
2023-01-19T11:18:57.437Z,99274.02
2023-01-19T11:21:28.001Z,99274.60
2023-01-19T11:24:02.495Z,99267.34
2023-01-19T11:26:40.888Z,99266.33
2023-01-19T11:29:24.407Z,99265.84
2023-01-19T11:31:54.427Z,99265.55
2023-01-19T11:34:31.983Z,99263.73
2023-01-19T11:37:16.048Z,99256.62
2023-01-19T11:39:53.519Z,99253.34
2023-01-19T11:42:22.405Z,99240.14
2023-01-19T11:45:11.987Z,99241.42
2023-01-19T11:47:45.728Z,99238.02
2023-01-19T11:50:23.145Z,99238.84
2023-01-19T11:53:16.764Z,99239.38
2023-01-19T11:56:08.345Z,99244.50
2023-01-19T11:58:42.412Z,99251.75
2023-01-19T12:01:22.406Z,99252.17
2023-01-19T12:04:14.436Z,99252.02
2023-01-19T12:06:47.823Z,99252.94
2023-01-19T12:09:22.501Z,99254.52
2023-01-19T12:11:56.626Z,99249.02
2023-01-19T12:14:32.120Z,99246.23
2023-01-19T12:17:06.042Z,99242.30
2023-01-19T12:19:40.958Z,99236.55
2023-01-19T12:22:15.876Z,99239.41
2023-01-19T12:24:59.932Z,99236.27
2023-01-19T12:27:40.908Z,99240.70
2023-01-19T12:30:29.714Z,99237.06
2023-01-19T12:33:35.151Z,99236.85
2023-01-19T12:36:06.075Z,99241.79
2023-01-19T12:38:36.343Z,99242.49
2023-01-19T12:41:33.039Z,99243.61
2023-01-19T12:44:16.398Z,99237.27
2023-01-19T12:47:05.370Z,99230.60
2023-01-19T12:49:38.229Z,99230.44
2023-01-19T12:52:34.560Z,99233.41
2023-01-19T12:55:21.529Z,99233.01
2023-01-19T12:57:55.580Z,99228.23
2023-01-19T13:00:23.539Z,99226.75
2023-01-19T13:02:58.804Z,99226.95
2023-01-19T13:05:39.476Z,99225.35
2023-01-19T13:08:07.930Z,99222.23
2023-01-19T13:10:54.630Z,99228.27
2023-01-19T13:13:30.083Z,99229.98
2023-01-19T13:16:20.164Z,99234.30
2023-01-19T13:18:53.133Z,99227.11
2023-01-19T13:21:45.220Z,99223.40
2023-01-19T13:24:22.606Z,99221.80
2023-01-19T13:26:50.466Z,99218.55
2023-01-19T13:29:35.448Z,99221.73
2023-01-19T13:32:16.019Z,99214.33
2023-01-19T13:34:47.734Z,99221.41
2023-01-19T13:37:19.693Z,99225.74
2023-01-19T13:39:51.676Z,99237.70
2023-01-19T13:42:30.729Z,99247.50
2023-01-19T13:45:02.262Z,99249.87
2023-01-19T13:47:42.678Z,99260.42
2023-01-19T13:50:21.041Z,99258.14
2023-01-19T13:52:51.488Z,99256.34
2023-01-19T13:55:20.667Z,99252.94
2023-01-19T13:57:50.873Z,99251.48
2023-01-19T14:00:25.410Z,99258.45
2023-01-19T14:02:55.641Z,99258.55
2023-01-19T14:05:26.284Z,99254.00
2023-01-19T14:08:05.001Z,99251.23
2023-01-19T14:10:35.564Z,99251.37
2023-01-19T14:13:06.711Z,99244.99
2023-01-19T14:15:34.936Z,99245.80
2023-01-19T14:18:17.879Z,99244.39
2023-01-19T14:20:52.566Z,99250.02
2023-01-19T14:23:42.132Z,99248.17
2023-01-19T14:26:37.963Z,99247.96
2023-01-19T14:29:24.431Z,99247.22
2023-01-19T14:32:12.702Z,99252.20
2023-01-19T14:34:41.299Z,99258.26
2023-01-19T14:37:47.147Z,99257.98
2023-01-19T14:40:18.427Z,99255.14
2023-01-19T14:42:55.441Z,99260.65
2023-01-19T14:45:35.303Z,99259.06
2023-01-19T14:48:04.978Z,99256.66
2023-01-19T14:50:36.834Z,99254.44
2023-01-19T14:53:17.321Z,99256.68
2023-01-19T14:55:51.044Z,99266.13
2023-01-19T14:58:21.381Z,99271.27
2023-01-19T15:00:49.928Z,99278.80
2023-01-19T15:03:17.927Z,99281.59
2023-01-19T15:05:47.471Z,99284.38
2023-01-19T15:08:18.709Z,99287.16
2023-01-19T15:10:46.751Z,99282.38
2023-01-19T15:13:21.025Z,99275.68
2023-01-19T15:15:50.351Z,99273.73
2023-01-19T15:18:25.450Z,99269.64
2023-01-19T15:20:55.313Z,99274.03
2023-01-19T15:23:23.125Z,99272.82
2023-01-19T15:25:52.037Z,99276.22
2023-01-19T15:28:20.423Z,99276.37
2023-01-19T15:30:48.299Z,99281.90
2023-01-19T15:33:24.385Z,99287.44
2023-01-19T15:35:53.027Z,99290.34
2023-01-19T15:38:21.000Z,99289.61
2023-01-19T15:40:51.423Z,99291.14
2023-01-19T15:43:21.087Z,99294.02
2023-01-19T15:46:02.128Z,99295.26
2023-01-19T15:48:30.038Z,99289.58
2023-01-19T15:50:58.079Z,99291.29
2023-01-19T15:53:27.305Z,99293.57
2023-01-19T16:00:40.190Z,99288.57
2023-01-19T16:03:08.614Z,99291.08
2023-01-19T16:05:42.863Z,99290.11
2023-01-19T16:08:11.951Z,99287.94
2023-01-19T16:10:41.606Z,99288.34
2023-01-19T16:17:41.168Z,99291.62
2023-01-19T16:20:12.868Z,99290.29
2023-01-19T16:22:42.162Z,99291.79
2023-01-19T16:25:10.156Z,99299.98
2023-01-19T16:27:38.272Z,99301.20
2023-01-19T16:30:06.922Z,99298.35
2023-01-19T16:32:36.460Z,99304.16
2023-01-19T16:35:05.018Z,99307.85
2023-01-19T16:37:32.949Z,99311.03
2023-01-19T16:40:00.906Z,99307.26
2023-01-19T16:42:28.700Z,99309.28
2023-01-19T16:44:56.499Z,99308.63
2023-01-19T16:47:24.467Z,99303.91
2023-01-19T16:49:52.353Z,99299.02
2023-01-19T16:52:20.222Z,99304.99
2023-01-19T16:54:48.174Z,99303.77
2023-01-19T16:57:16.774Z,99303.90
2023-01-19T16:59:45.215Z,99304.40
2023-01-19T17:02:13.279Z,99306.71
2023-01-19T17:04:41.116Z,99303.45
2023-01-19T17:07:09.301Z,99302.88
2023-01-19T17:09:38.191Z,99297.49
2023-01-19T17:12:09.167Z,99291.25
2023-01-19T17:14:38.285Z,99289.30
2023-01-19T17:17:09.360Z,99291.83
2023-01-19T17:19:37.187Z,99292.65
2023-01-19T17:22:04.979Z,99292.70
2023-01-19T17:24:32.894Z,99287.20
2023-01-19T17:27:00.707Z,99285.01
2023-01-19T17:29:28.871Z,99284.41
2023-01-19T17:31:56.660Z,99288.05
2023-01-19T17:34:24.464Z,99294.14
2023-01-19T17:36:52.249Z,99294.02
2023-01-19T17:39:20.032Z,99292.59
2023-01-19T17:41:50.235Z,99293.05
2023-01-19T17:44:18.203Z,99295.16
2023-01-19T17:46:45.936Z,99294.48
2023-01-19T17:49:13.690Z,99295.56
2023-01-19T17:51:41.472Z,99288.97
2023-01-19T17:54:11.293Z,99290.77
2023-01-19T17:56:41.270Z,99291.72
2023-01-19T17:59:09.963Z,99289.58
2023-01-19T18:01:40.133Z,99287.05
2023-01-19T18:08:52.655Z,99294.70
2023-01-19T18:11:21.797Z,99299.70
2023-01-19T18:18:24.208Z,99291.99
2023-01-19T18:20:52.190Z,99295.30
2023-01-19T18:23:19.988Z,99294.77
2023-01-19T18:25:48.461Z,99296.27
2023-01-19T18:28:16.481Z,99293.48
2023-01-19T18:30:44.428Z,99295.59
2023-01-19T18:33:12.291Z,99294.70
2023-01-19T18:35:40.596Z,99295.36
2023-01-19T18:38:08.571Z,99295.38
2023-01-19T18:49:46.553Z,99294.57
2023-01-19T18:56:50.927Z,99297.52
2023-01-19T18:59:18.892Z,99299.14
2023-01-19T19:01:48.112Z,99301.73
2023-01-19T19:04:16.927Z,99299.98
2023-01-19T19:06:45.026Z,99303.28
2023-01-19T19:09:13.083Z,99302.33
2023-01-19T19:11:41.483Z,99300.77
2023-01-19T19:14:09.923Z,99302.67
2023-01-19T19:21:13.087Z,99301.67
2023-01-19T19:23:41.025Z,99300.54
2023-01-19T19:26:11.387Z,99305.90
2023-01-19T19:28:40.544Z,99313.80
2023-01-19T19:31:13.710Z,99318.30
2023-01-19T19:33:42.384Z,99318.83
2023-01-19T19:36:11.870Z,99319.84
2023-01-19T19:38:44.518Z,99321.69
2023-01-19T19:41:14.925Z,99323.57
2023-01-19T19:43:43.980Z,99323.42
2023-01-19T19:46:14.127Z,99326.58
2023-01-19T19:48:42.509Z,99328.62
2023-01-19T19:55:59.262Z,99335.15
2023-01-19T19:58:31.023Z,99335.50
2023-01-19T20:10:06.675Z,99348.70
2023-01-19T20:12:40.039Z,99345.44
2023-01-19T20:15:13.034Z,99346.67
2023-01-19T20:17:45.031Z,99351.45
2023-01-19T20:20:15.311Z,99352.84
2023-01-19T20:22:46.034Z,99355.93
2023-01-19T20:25:17.996Z,99357.30
2023-01-19T20:27:50.042Z,99362.96
2023-01-19T20:30:22.431Z,99362.48
2023-01-19T20:32:54.063Z,99362.48
2023-01-19T20:35:24.969Z,99363.50
2023-01-19T20:37:56.075Z,99361.48
2023-01-19T20:40:27.485Z,99362.84
2023-01-19T20:42:58.054Z,99368.06
2023-01-19T20:45:30.079Z,99369.96
2023-01-19T20:59:42.822Z,99370.02
2023-01-19T21:02:16.183Z,99371.58
2023-01-19T21:04:44.332Z,99370.58
2023-01-19T21:07:12.262Z,99372.63
2023-01-19T21:09:40.312Z,99377.23
2023-01-19T21:12:09.739Z,99378.81
2023-01-19T21:14:38.498Z,99385.05
2023-01-19T21:17:06.370Z,99394.88
2023-01-19T21:19:34.246Z,99404.86
2023-01-19T21:22:02.142Z,99408.66
2023-01-19T21:24:30.099Z,99412.11
2023-01-19T21:26:57.899Z,99414.83
2023-01-19T21:29:25.707Z,99419.45
2023-01-19T21:31:53.603Z,99420.85
2023-01-19T21:34:21.580Z,99427.05
2023-01-19T21:36:49.523Z,99433.56
2023-01-19T21:39:17.677Z,99439.58
2023-01-19T21:41:45.610Z,99443.14
2023-01-19T21:44:13.728Z,99448.45
2023-01-19T21:46:41.872Z,99450.52
2023-01-19T21:49:16.536Z,99447.29
2023-01-19T21:51:45.555Z,99453.61
2023-01-19T21:54:14.702Z,99453.63
2023-01-19T21:56:43.375Z,99456.53
2023-01-19T21:59:14.990Z,99452.48
2023-01-19T22:01:45.257Z,99451.98
2023-01-19T22:04:13.105Z,99454.73
2023-01-19T22:06:41.142Z,99459.89
2023-01-19T22:09:09.169Z,99465.56
2023-01-19T22:11:37.168Z,99466.80
2023-01-19T22:14:05.271Z,99465.13
2023-01-19T22:16:33.196Z,99462.91
2023-01-19T22:19:02.504Z,99461.19
2023-01-19T22:21:33.315Z,99462.06
2023-01-19T22:24:03.889Z,99461.55
2023-01-19T22:26:34.488Z,99467.38
2023-01-19T22:29:04.369Z,99468.98
2023-01-19T22:31:32.899Z,99468.83
2023-01-19T22:34:01.009Z,99467.99
2023-01-19T22:36:31.837Z,99467.66
2023-01-19T22:39:02.087Z,99472.27
2023-01-19T22:41:32.920Z,99472.61
2023-01-19T22:44:03.253Z,99478.59
2023-01-19T22:46:33.554Z,99482.35
2023-01-19T22:49:02.882Z,99488.86
2023-01-19T22:51:32.797Z,99496.91
2023-01-19T22:54:01.476Z,99504.42
2023-01-19T22:56:31.856Z,99504.42
2023-01-19T22:59:00.605Z,99504.39
2023-01-19T23:01:38.614Z,99509.66
2023-01-19T23:04:08.623Z,99513.77
2023-01-19T23:06:37.506Z,99516.83
2023-01-19T23:09:08.231Z,99519.04
2023-01-19T23:11:41.753Z,99522.77
2023-01-19T23:14:14.890Z,99523.98
2023-01-19T23:16:42.641Z,99524.83
2023-01-19T23:19:12.538Z,99519.02
2023-01-19T23:21:41.092Z,99519.54
2023-01-19T23:24:09.226Z,99526.52
2023-01-19T23:26:40.060Z,99519.89
2023-01-19T23:29:13.516Z,99525.38
2023-01-19T23:31:47.536Z,99529.99
2023-01-19T23:34:16.294Z,99532.39
2023-01-19T23:36:44.881Z,99535.48
2023-01-19T23:39:16.135Z,99537.73
2023-01-19T23:41:43.990Z,99544.39
2023-01-19T23:44:12.205Z,99550.20
2023-01-19T23:46:40.147Z,99559.08
2023-01-19T23:49:08.142Z,99565.59
2023-01-19T23:51:36.181Z,99573.77
2023-01-19T23:54:04.239Z,99578.91
2023-01-19T23:56:34.466Z,99579.58
2023-01-19T23:59:06.110Z,99582.48
